createdAt,value
2017-12-25T00:01:04.020Z,111.43
2017-12-25T00:03:34.113Z,107.27
2017-12-25T00:06:02.347Z,103.07
2017-12-25T00:08:31.223Z,115.57
2017-12-25T00:10:59.274Z,116.40
2017-12-25T00:13:27.437Z,114.03
2017-12-25T00:15:55.482Z,113.20
2017-12-25T00:18:23.499Z,113.87
2017-12-25T00:20:51.654Z,115.43
2017-12-25T00:23:19.672Z,112.67
2017-12-25T00:25:48.486Z,114.20
2017-12-25T00:28:16.642Z,111.40
2017-12-25T00:30:45.443Z,113.77
2017-12-25T00:33:14.198Z,113.97
2017-12-25T00:35:42.335Z,112.77
2017-12-25T00:38:10.346Z,111.57
2017-12-25T00:40:38.394Z,115.87
2017-12-25T00:43:06.538Z,113.70
2017-12-25T00:45:34.550Z,120.10
2017-12-25T00:48:02.566Z,121.37
2017-12-25T00:50:31.611Z,122.20
2017-12-25T00:53:00.463Z,117.17
2017-12-25T00:55:28.507Z,120.70
2017-12-25T00:57:57.419Z,116.67
2017-12-25T01:00:26.170Z,117.43
2017-12-25T01:02:54.228Z,121.77
2017-12-25T01:05:22.619Z,109.37
2017-12-25T01:07:50.638Z,116.53
2017-12-25T01:10:18.642Z,118.87
2017-12-25T01:12:46.799Z,118.47
2017-12-25T01:15:14.851Z,115.77
2017-12-25T01:17:43.607Z,111.00
2017-12-25T01:20:11.746Z,109.90
2017-12-25T01:22:39.774Z,99.60
2017-12-25T01:25:08.530Z,115.40
2017-12-25T01:27:36.646Z,123.50
2017-12-25T01:30:05.439Z,109.17
2017-12-25T01:32:34.202Z,123.87
2017-12-25T01:35:02.373Z,120.57
2017-12-25T01:37:30.422Z,118.80
2017-12-25T01:39:58.456Z,126.07
2017-12-25T01:42:26.579Z,131.53
2017-12-25T01:44:54.748Z,128.17
2017-12-25T01:47:22.778Z,118.70
2017-12-25T01:49:50.947Z,119.80
2017-12-25T01:52:19.130Z,120.27
2017-12-25T01:54:47.439Z,126.77
2017-12-25T02:10:42.673Z,123.77
2017-12-25T02:13:10.723Z,128.87
2017-12-25T02:15:38.762Z,127.17
2017-12-25T02:18:07.116Z,128.40
2017-12-25T02:20:35.886Z,127.07
2017-12-25T02:23:03.910Z,128.83
2017-12-25T02:25:32.042Z,127.47
2017-12-25T02:28:00.955Z,132.77
2017-12-25T02:30:29.771Z,130.80
2017-12-25T02:32:57.944Z,132.73
2017-12-25T02:35:26.035Z,135.20
2017-12-25T02:37:54.046Z,133.10
2017-12-25T02:40:22.983Z,133.83
2017-12-25T02:42:51.027Z,136.10
2017-12-25T02:45:19.813Z,137.87
2017-12-25T02:47:48.780Z,133.80
2017-12-25T02:50:16.802Z,133.17
2017-12-25T02:52:44.847Z,132.93
2017-12-25T02:55:13.715Z,135.23
2017-12-25T02:57:41.731Z,134.47
2017-12-25T03:00:09.791Z,132.30
2017-12-25T03:02:38.707Z,136.47
2017-12-25T03:05:06.752Z,137.50
2017-12-25T03:07:35.510Z,145.20
2017-12-25T03:10:03.675Z,142.23
2017-12-25T03:12:31.854Z,143.33
2017-12-25T03:14:59.870Z,153.03
2017-12-25T03:17:28.783Z,144.33
2017-12-25T03:19:56.801Z,148.17
2017-12-25T03:22:24.814Z,145.97
2017-12-25T03:24:52.954Z,148.10
2017-12-25T03:27:20.966Z,141.17
2017-12-25T03:29:49.019Z,141.97
2017-12-25T03:32:17.948Z,144.53
2017-12-25T03:34:46.003Z,144.27
2017-12-25T03:37:14.059Z,144.80
2017-12-25T03:39:42.215Z,141.63
2017-12-25T03:42:11.007Z,139.90
2017-12-25T03:44:39.766Z,137.10
2017-12-25T03:47:08.023Z,137.07
2017-12-25T03:49:36.022Z,134.63
2017-12-25T03:52:04.054Z,141.30
2017-12-25T03:54:32.281Z,137.17
2017-12-25T03:57:00.438Z,133.87
2017-12-25T03:59:28.523Z,127.23
2017-12-25T04:01:56.695Z,130.80
2017-12-25T04:04:24.691Z,127.77
2017-12-25T04:06:52.675Z,122.23
2017-12-25T04:09:21.502Z,124.50
2017-12-25T04:11:49.494Z,122.83
2017-12-25T04:14:17.680Z,121.60
2017-12-25T04:16:45.887Z,122.87
2017-12-25T04:19:14.594Z,128.20
2017-12-25T04:21:42.704Z,124.80
2017-12-25T04:24:10.806Z,122.90
2017-12-25T04:26:38.972Z,123.33
2017-12-25T04:29:07.068Z,120.93
2017-12-25T04:31:35.996Z,113.87
2017-12-25T04:34:04.083Z,110.87
2017-12-25T04:36:32.098Z,95.27
2017-12-25T04:39:00.951Z,95.00
2017-12-25T04:41:28.933Z,99.37
2017-12-25T04:43:56.996Z,98.40
2017-12-25T04:46:25.216Z,104.57
2017-12-25T04:48:54.012Z,89.93
2017-12-25T04:51:22.730Z,96.93
2017-12-25T04:53:50.919Z,82.07
2017-12-25T04:56:18.930Z,79.07
2017-12-25T04:58:47.642Z,91.27
2017-12-25T05:01:15.726Z,103.27
2017-12-25T05:03:43.796Z,104.60
2017-12-25T05:06:11.835Z,105.73
2017-12-25T05:08:40.764Z,99.10
2017-12-25T05:11:08.828Z,102.87
2017-12-25T05:13:36.807Z,90.03
2017-12-25T05:16:05.164Z,94.00
2017-12-25T05:18:33.895Z,95.73
2017-12-25T05:21:01.948Z,93.43
2017-12-25T05:23:30.029Z,89.80
2017-12-25T05:25:58.140Z,83.77
2017-12-25T05:28:26.209Z,75.93
2017-12-25T05:30:54.396Z,76.10
2017-12-25T05:33:22.464Z,74.67
2017-12-25T05:35:50.550Z,79.97
2017-12-25T05:38:19.395Z,73.83
2017-12-25T05:40:47.388Z,62.80
2017-12-25T05:43:15.471Z,71.43
2017-12-25T05:45:43.772Z,73.77
2017-12-25T05:48:12.576Z,67.43
2017-12-25T05:50:40.585Z,68.90
2017-12-25T05:53:08.780Z,60.83
2017-12-25T05:55:36.856Z,58.50
2017-12-25T05:58:04.813Z,61.67
2017-12-25T06:00:32.959Z,59.13
2017-12-25T06:03:00.955Z,62.87
2017-12-25T06:05:29.020Z,62.00
2017-12-25T06:07:57.128Z,62.13
2017-12-25T06:10:25.115Z,61.47
2017-12-25T06:12:53.949Z,54.20
2017-12-25T06:15:22.130Z,54.47
2017-12-25T06:17:50.364Z,55.33
2017-12-25T06:20:19.070Z,59.00
2017-12-25T06:22:47.203Z,53.80
2017-12-25T06:25:15.241Z,56.70
2017-12-25T06:27:43.256Z,55.87
2017-12-25T06:30:12.144Z,59.50
2017-12-25T06:32:40.518Z,55.80
2017-12-25T06:35:08.599Z,56.10
2017-12-25T06:37:37.446Z,53.50
2017-12-25T06:40:06.387Z,51.43
2017-12-25T06:42:35.097Z,53.63
2017-12-25T06:45:03.199Z,55.10
2017-12-25T06:47:31.242Z,56.73
2017-12-25T06:49:59.272Z,54.97
2017-12-25T06:52:27.447Z,50.77
2017-12-25T06:54:55.591Z,53.30
2017-12-25T06:57:23.594Z,55.50
2017-12-25T06:59:51.738Z,53.30
2017-12-25T07:02:19.755Z,50.60
2017-12-25T07:04:47.755Z,52.03
2017-12-25T07:07:15.812Z,53.87
2017-12-25T07:09:44.479Z,54.73
2017-12-25T07:12:12.349Z,50.30
2017-12-25T07:14:40.390Z,49.83
2017-12-25T07:17:08.298Z,50.10
2017-12-25T07:19:36.358Z,49.90
2017-12-25T07:22:04.361Z,45.73
2017-12-25T07:24:33.035Z,45.70
2017-12-25T07:27:01.669Z,48.33
2017-12-25T07:29:29.680Z,47.90
2017-12-25T07:31:57.611Z,47.90
2017-12-25T07:34:25.538Z,44.40
2017-12-25T07:36:54.343Z,44.40
2017-12-25T07:39:22.236Z,45.87
2017-12-25T07:41:50.159Z,44.77
2017-12-25T07:44:18.913Z,43.80
2017-12-25T07:46:46.844Z,40.30
2017-12-25T07:49:14.795Z,46.40
2017-12-25T07:51:43.585Z,53.97
2017-12-25T07:54:12.240Z,47.90
2017-12-25T07:56:40.253Z,52.57
2017-12-25T07:59:09.030Z,45.10
2017-12-25T08:01:37.765Z,55.17
2017-12-25T08:04:05.673Z,42.60
2017-12-25T08:06:34.516Z,40.13
2017-12-25T08:09:02.417Z,40.67
2017-12-25T08:11:30.369Z,42.27
2017-12-25T08:13:58.438Z,42.77
2017-12-25T08:16:26.455Z,43.50
2017-12-25T08:18:55.190Z,44.33
2017-12-25T08:21:23.380Z,40.57
2017-12-25T08:23:51.313Z,42.67
2017-12-25T08:26:19.322Z,45.60
2017-12-25T08:28:47.381Z,44.13
2017-12-25T08:31:15.370Z,42.93
2017-12-25T08:33:43.343Z,40.60
2017-12-25T08:36:11.436Z,37.70
2017-12-25T08:38:39.383Z,38.77
2017-12-25T08:41:07.457Z,37.53
2017-12-25T08:43:35.551Z,38.60
2017-12-25T08:46:04.575Z,37.43
2017-12-25T08:48:33.261Z,38.57
2017-12-25T08:51:02.103Z,33.87
2017-12-25T08:53:30.087Z,30.97
2017-12-25T08:55:58.161Z,39.60
2017-12-25T08:58:26.213Z,33.83
2017-12-25T09:00:54.187Z,33.67
2017-12-25T09:03:22.163Z,34.20
2017-12-25T09:05:50.295Z,27.10
2017-12-25T09:08:18.271Z,34.23
2017-12-25T09:10:46.258Z,29.30
2017-12-25T09:13:14.402Z,37.00
2017-12-25T09:15:42.460Z,36.40
2017-12-25T09:18:11.169Z,40.37
2017-12-25T09:20:39.271Z,32.70
2017-12-25T09:23:07.379Z,34.17
2017-12-25T09:25:35.362Z,29.40
2017-12-25T09:28:04.211Z,29.10
2017-12-25T09:30:32.206Z,30.90
2017-12-25T09:33:00.179Z,27.60
2017-12-25T09:35:28.262Z,30.10
2017-12-25T09:37:56.987Z,33.30
2017-12-25T09:40:24.921Z,28.97
2017-12-25T09:42:52.981Z,33.50
2017-12-25T09:45:21.041Z,28.30
2017-12-25T09:47:49.019Z,36.20
2017-12-25T09:50:17.118Z,33.03
2017-12-25T09:52:45.109Z,37.97
2017-12-25T09:55:13.113Z,32.10
2017-12-25T09:57:41.185Z,29.33
2017-12-25T10:00:09.145Z,29.77
2017-12-25T10:02:37.126Z,33.20
2017-12-25T10:05:05.184Z,28.40
2017-12-25T10:07:33.163Z,32.50
2017-12-25T10:10:01.155Z,36.17
2017-12-25T10:12:29.239Z,34.90
2017-12-25T10:14:57.211Z,39.77
2017-12-25T10:17:25.202Z,38.10
2017-12-25T10:19:54.051Z,37.87
2017-12-25T10:22:22.024Z,30.60
2017-12-25T10:24:50.139Z,35.50
2017-12-25T10:27:18.932Z,36.40
2017-12-25T10:29:46.927Z,35.77
2017-12-25T10:32:14.894Z,38.13
2017-12-25T10:34:42.999Z,34.80
2017-12-25T10:37:10.933Z,34.10
2017-12-25T10:39:38.869Z,31.20
2017-12-25T10:42:06.976Z,32.23
2017-12-25T10:44:34.920Z,33.90
2017-12-25T10:47:02.856Z,31.87
2017-12-25T10:49:30.962Z,31.17
2017-12-25T10:51:58.905Z,34.23
2017-12-25T10:54:26.861Z,34.70
2017-12-25T10:56:54.925Z,32.60
2017-12-25T10:59:22.852Z,35.37
2017-12-25T11:01:51.537Z,34.00
2017-12-25T11:04:20.349Z,33.47
2017-12-25T11:06:48.373Z,30.77
2017-12-25T11:09:16.317Z,36.00
2017-12-25T11:11:44.363Z,37.70
2017-12-25T11:14:12.301Z,31.67
2017-12-25T11:16:40.383Z,37.00
2017-12-25T11:19:09.193Z,29.43
2017-12-25T11:21:37.926Z,29.80
2017-12-25T11:24:05.841Z,35.10
2017-12-25T11:26:34.955Z,33.73
2017-12-25T11:29:02.940Z,32.87
2017-12-25T11:31:30.918Z,31.27
2017-12-25T11:33:59.027Z,27.83
2017-12-25T11:36:27.119Z,25.87
2017-12-25T11:38:55.840Z,26.17
2017-12-25T11:41:23.897Z,27.10
2017-12-25T11:43:51.876Z,31.53
2017-12-25T11:46:19.873Z,28.20
2017-12-25T11:48:47.975Z,30.47
2017-12-25T11:51:15.974Z,34.00
2017-12-25T11:53:44.706Z,31.70
2017-12-25T11:56:12.825Z,30.93
2017-12-25T11:58:41.509Z,30.90
2017-12-25T12:01:09.445Z,34.93
2017-12-25T12:03:37.555Z,33.87
2017-12-25T12:06:05.626Z,34.20
2017-12-25T12:08:34.366Z,34.10
2017-12-25T12:11:02.470Z,36.17
2017-12-25T12:13:30.446Z,35.30
2017-12-25T12:15:58.507Z,34.50
2017-12-25T12:18:26.561Z,37.13
2017-12-25T12:20:54.509Z,36.93
2017-12-25T12:23:22.488Z,39.10
2017-12-25T12:25:50.609Z,38.00
2017-12-25T12:28:18.718Z,40.63
2017-12-25T12:30:46.699Z,34.20
2017-12-25T12:33:14.798Z,38.27
2017-12-25T12:35:42.823Z,39.63
2017-12-25T12:38:11.555Z,39.47
2017-12-25T12:40:39.668Z,40.63
2017-12-25T12:43:07.662Z,43.53
2017-12-25T12:45:36.341Z,42.33
2017-12-25T12:48:05.198Z,40.80
2017-12-25T12:50:33.125Z,40.70
2017-12-25T12:53:01.091Z,36.47
2017-12-25T12:55:29.145Z,43.90
2017-12-25T12:57:57.855Z,40.20
2017-12-25T13:00:25.877Z,45.30
2017-12-25T13:02:53.986Z,43.20
2017-12-25T13:05:22.725Z,45.73
2017-12-25T13:07:50.656Z,45.77
2017-12-25T13:10:18.745Z,44.03
2017-12-25T13:12:46.694Z,48.57
2017-12-25T13:15:14.675Z,47.23
2017-12-25T13:17:42.835Z,45.87
2017-12-25T13:20:11.592Z,45.63
2017-12-25T13:22:39.591Z,47.63
2017-12-25T13:25:07.787Z,50.77
2017-12-25T13:27:35.790Z,50.43
2017-12-25T13:30:03.973Z,52.13
2017-12-25T13:32:32.085Z,54.47
2017-12-25T13:35:00.841Z,53.50
2017-12-25T13:37:28.797Z,57.00
2017-12-25T13:39:56.865Z,55.80
2017-12-25T13:42:24.805Z,58.20
2017-12-25T13:44:52.847Z,58.37
2017-12-25T13:47:20.970Z,60.97
2017-12-25T13:49:48.900Z,62.93
2017-12-25T13:52:17.589Z,62.97
2017-12-25T13:54:46.435Z,60.97
2017-12-25T13:57:14.426Z,62.90
2017-12-25T13:59:42.423Z,63.77
2017-12-25T14:02:11.235Z,67.30
2017-12-25T14:04:39.211Z,65.93
2017-12-25T14:07:07.148Z,69.30
2017-12-25T14:09:35.956Z,67.10
2017-12-25T14:12:03.950Z,68.07
2017-12-25T14:14:31.955Z,62.80
2017-12-25T14:17:00.059Z,62.00
2017-12-25T14:19:28.772Z,66.73
2017-12-25T14:21:57.525Z,66.23
2017-12-25T14:24:26.402Z,66.27
2017-12-25T14:26:54.367Z,64.60
2017-12-25T14:29:22.319Z,64.77
2017-12-25T14:31:50.591Z,63.27
2017-12-25T14:34:18.541Z,66.20
2017-12-25T14:36:46.587Z,63.83
2017-12-25T14:39:15.439Z,69.30
2017-12-25T14:41:43.419Z,77.23
2017-12-25T14:44:11.402Z,74.40
2017-12-25T14:46:40.325Z,79.17
2017-12-25T14:49:08.307Z,79.03
2017-12-25T14:51:36.249Z,88.40
2017-12-25T14:54:05.088Z,78.40
2017-12-25T14:56:33.064Z,94.70
2017-12-25T14:59:01.002Z,93.50
2017-12-25T15:01:29.053Z,86.10
2017-12-25T15:03:57.759Z,83.33
2017-12-25T15:06:25.801Z,86.03
2017-12-25T15:08:54.647Z,85.47
2017-12-25T15:11:22.771Z,94.23
2017-12-25T15:13:51.506Z,87.37
2017-12-25T15:16:19.615Z,84.80
2017-12-25T15:18:47.593Z,79.80
2017-12-25T15:21:15.525Z,74.83
2017-12-25T15:23:43.639Z,77.30
2017-12-25T15:26:11.734Z,82.63
2017-12-25T15:28:40.417Z,75.00
2017-12-25T15:31:09.219Z,79.13
2017-12-25T15:33:37.281Z,85.57
2017-12-25T15:36:06.025Z,84.23
2017-12-25T15:38:34.126Z,81.10
2017-12-25T15:41:02.069Z,79.67
2017-12-25T15:43:30.047Z,83.00
2017-12-25T15:45:58.228Z,79.33
2017-12-25T15:48:26.223Z,74.70
2017-12-25T15:50:54.947Z,83.63
2017-12-25T15:53:23.048Z,82.80
2017-12-25T15:55:51.000Z,96.37
2017-12-25T15:58:18.982Z,100.17
2017-12-25T16:00:47.083Z,95.43
2017-12-25T16:03:15.075Z,99.07
2017-12-25T16:05:43.856Z,108.63
2017-12-25T16:08:12.661Z,106.93
2017-12-25T16:10:41.367Z,105.57
2017-12-25T16:13:09.312Z,107.87
2017-12-25T16:15:38.153Z,106.50
2017-12-25T16:18:06.089Z,105.43
2017-12-25T16:20:34.033Z,111.80
2017-12-25T16:23:02.883Z,117.23
2017-12-25T16:25:30.821Z,115.67
2017-12-25T16:27:58.802Z,123.00
2017-12-25T16:30:26.919Z,119.50
2017-12-25T16:32:54.846Z,119.70
2017-12-25T16:35:23.794Z,115.53
2017-12-25T16:37:51.861Z,117.10
2017-12-25T16:40:20.033Z,123.33
2017-12-25T16:42:48.063Z,116.23
2017-12-25T16:45:16.122Z,122.37
2017-12-25T16:47:44.115Z,122.47
2017-12-25T16:50:12.061Z,127.70
2017-12-25T16:52:40.125Z,127.33
2017-12-25T16:55:08.820Z,122.40
2017-12-25T16:57:36.794Z,123.73
2017-12-25T17:00:04.899Z,127.97
2017-12-25T17:02:32.890Z,124.37
2017-12-25T17:05:01.015Z,121.63
2017-12-25T17:07:29.105Z,123.93
2017-12-25T17:09:57.081Z,123.30
2017-12-25T17:12:25.062Z,120.67
2017-12-25T17:14:53.125Z,117.73
2017-12-25T17:17:21.117Z,118.00
2017-12-25T17:19:49.123Z,118.37
2017-12-25T17:22:24.296Z,125.90
2017-12-25T17:24:52.746Z,126.30
2017-12-25T17:27:21.443Z,127.97
2017-12-25T17:29:49.377Z,130.00
2017-12-25T17:32:17.350Z,129.17
2017-12-25T17:34:45.323Z,134.47
2017-12-25T17:37:15.329Z,133.20
2017-12-25T17:39:43.302Z,133.87
2017-12-25T17:42:11.237Z,131.03
2017-12-25T17:44:39.340Z,139.30
2017-12-25T17:47:07.319Z,145.00
2017-12-25T17:49:35.253Z,139.80
2017-12-25T17:52:03.355Z,141.13
2017-12-25T17:54:31.301Z,140.90
2017-12-25T17:56:59.233Z,149.40
2017-12-25T17:59:28.057Z,143.73
2017-12-25T18:01:56.001Z,144.73
2017-12-25T18:04:23.975Z,138.20
2017-12-25T18:06:52.029Z,135.27
2017-12-25T18:09:20.700Z,131.60
2017-12-25T18:11:48.671Z,129.57
2017-12-25T18:14:17.523Z,129.00
2017-12-25T18:16:45.543Z,134.00
2017-12-25T18:19:14.222Z,133.50
2017-12-25T18:21:42.327Z,137.83
2017-12-25T18:24:10.302Z,138.47
2017-12-25T18:26:38.293Z,144.50
2017-12-25T18:29:06.333Z,143.40
2017-12-25T18:31:35.058Z,147.50
2017-12-25T18:34:03.065Z,140.57
2017-12-25T18:36:31.267Z,146.17
2017-12-25T18:39:00.103Z,144.63
2017-12-25T18:41:28.033Z,140.10
2017-12-25T18:43:56.147Z,142.27
2017-12-25T18:46:24.147Z,143.73
2017-12-25T18:48:52.072Z,139.23
2017-12-25T18:51:20.125Z,136.23
2017-12-25T18:53:48.099Z,136.03
2017-12-25T18:56:16.113Z,135.10
2017-12-25T18:58:44.161Z,133.97
2017-12-25T19:01:12.093Z,134.37
2017-12-25T19:03:40.815Z,134.17
2017-12-25T19:06:08.909Z,141.37
2017-12-25T19:08:36.931Z,131.60
2017-12-25T19:11:05.656Z,129.40
2017-12-25T19:13:33.721Z,126.67
2017-12-25T19:16:01.717Z,129.57
2017-12-25T19:18:29.833Z,129.07
2017-12-25T19:20:58.862Z,126.40
2017-12-25T19:23:26.797Z,131.87
2017-12-25T19:25:55.579Z,137.33
2017-12-25T19:28:24.413Z,139.23
2017-12-25T19:30:52.407Z,139.80
2017-12-25T19:33:20.333Z,143.20
2017-12-25T19:35:48.380Z,145.40
2017-12-25T19:38:17.045Z,145.80
2017-12-25T19:40:45.105Z,146.60
2017-12-25T19:43:13.194Z,147.97
2017-12-25T19:45:41.237Z,136.83
2017-12-25T19:48:09.948Z,138.67
2017-12-25T19:50:37.989Z,129.73
2017-12-25T19:53:05.963Z,135.10
2017-12-25T19:55:33.892Z,128.53
2017-12-25T19:58:02.681Z,122.50
2017-12-25T20:00:31.481Z,119.83
2017-12-25T20:03:00.163Z,115.63
2017-12-25T20:05:28.988Z,115.50
2017-12-25T20:07:56.923Z,109.83
2017-12-25T20:10:25.630Z,111.80
2017-12-25T20:12:53.716Z,109.47
2017-12-25T20:15:21.695Z,101.47
2017-12-25T20:17:49.715Z,107.73
2017-12-25T20:20:18.545Z,103.47
2017-12-25T20:22:46.530Z,110.23
2017-12-25T20:25:14.465Z,108.13
2017-12-25T20:27:43.295Z,109.60
2017-12-25T20:30:11.274Z,105.43
2017-12-25T20:32:39.197Z,105.30
2017-12-25T20:35:07.303Z,109.03
2017-12-25T20:37:35.229Z,105.17
2017-12-25T20:40:03.999Z,106.27
2017-12-25T20:42:32.200Z,106.60
2017-12-25T20:45:00.919Z,107.27
2017-12-25T20:47:28.907Z,105.27
2017-12-25T20:49:56.994Z,103.70
2017-12-25T20:52:24.954Z,115.77
2017-12-25T20:54:52.930Z,114.00
2017-12-25T20:57:21.076Z,111.70
2017-12-25T20:59:49.021Z,121.23
2017-12-25T21:02:16.961Z,123.43
2017-12-25T21:04:45.052Z,128.90
2017-12-25T21:07:13.717Z,134.10
2017-12-25T21:09:41.690Z,147.13
2017-12-25T21:12:09.761Z,146.90
2017-12-25T21:14:37.742Z,159.47
2017-12-25T21:17:06.467Z,157.40
2017-12-25T21:19:34.552Z,156.03
2017-12-25T21:22:02.523Z,148.77
2017-12-25T21:24:30.515Z,147.20
2017-12-25T21:26:58.600Z,145.23
2017-12-25T21:29:26.574Z,137.83
2017-12-25T21:31:54.547Z,129.97
2017-12-25T21:34:22.605Z,126.60
2017-12-25T21:36:50.583Z,124.57
2017-12-25T21:39:18.559Z,134.67
2017-12-25T21:41:46.654Z,135.93
2017-12-25T21:44:15.514Z,143.57
2017-12-25T21:46:43.615Z,141.97
2017-12-25T21:49:12.417Z,150.50
2017-12-25T21:51:41.132Z,149.90
2017-12-25T21:54:09.053Z,159.80
2017-12-25T21:56:37.192Z,151.30
2017-12-25T21:59:05.179Z,160.97
2017-12-25T22:01:33.105Z,165.90
2017-12-25T22:04:01.204Z,161.90
2017-12-25T22:06:29.232Z,162.57
2017-12-25T22:08:57.213Z,166.07
2017-12-25T22:11:25.303Z,158.83
2017-12-25T22:13:53.229Z,171.67
2017-12-25T22:16:21.306Z,160.50
2017-12-25T22:18:50.144Z,153.93
2017-12-25T22:21:18.121Z,157.83
2017-12-25T22:23:46.058Z,152.27
2017-12-25T22:26:14.197Z,155.57
2017-12-25T22:28:42.166Z,158.03
2017-12-25T22:31:10.143Z,159.03
2017-12-25T22:33:38.205Z,151.87
2017-12-25T22:36:06.254Z,150.83
2017-12-25T22:38:34.222Z,128.43
2017-12-25T22:41:02.287Z,146.90
2017-12-25T22:43:30.233Z,151.50
2017-12-25T22:45:58.386Z,141.03
2017-12-25T22:48:27.230Z,133.87
2017-12-25T22:50:55.195Z,143.97
2017-12-25T22:53:23.216Z,136.47
2017-12-25T22:55:51.270Z,140.60
2017-12-25T22:58:19.247Z,146.10
2017-12-25T23:00:47.245Z,155.37
2017-12-25T23:03:16.013Z,155.50
2017-12-25T23:05:43.954Z,152.37
2017-12-25T23:08:11.914Z,159.13
2017-12-25T23:10:39.948Z,157.23
2017-12-25T23:13:08.652Z,154.83
2017-12-25T23:15:36.557Z,153.93
2017-12-25T23:18:04.593Z,162.10
2017-12-25T23:20:32.542Z,164.93
2017-12-25T23:23:01.239Z,160.70
2017-12-25T23:25:30.069Z,160.97
2017-12-25T23:27:57.980Z,156.03
2017-12-25T23:30:26.671Z,157.23
2017-12-25T23:32:55.452Z,161.07
2017-12-25T23:35:23.369Z,155.20
2017-12-25T23:37:51.346Z,154.67
2017-12-25T23:40:19.404Z,161.10
2017-12-25T23:42:47.333Z,150.23
2017-12-25T23:45:15.276Z,152.80
2017-12-25T23:47:43.528Z,141.27
2017-12-25T23:50:11.507Z,136.30
2017-12-25T23:52:39.449Z,137.23
2017-12-25T23:55:08.343Z,143.00
2017-12-25T23:57:36.307Z,127.40
